createdAt,value
2022-12-27T00:00:19.550Z,100.00
2022-12-27T00:02:49.094Z,100.00
2022-12-27T00:05:18.989Z,100.00
2022-12-27T00:07:48.303Z,100.00
2022-12-27T00:10:17.502Z,100.00
2022-12-27T00:12:46.770Z,100.00
2022-12-27T00:15:17.438Z,100.00
2022-12-27T00:17:46.627Z,100.00
2022-12-27T00:20:15.908Z,100.00
2022-12-27T00:22:45.119Z,100.00
2022-12-27T00:25:14.330Z,100.00
2022-12-27T00:27:43.660Z,100.00
2022-12-27T00:30:17.406Z,100.00
2022-12-27T00:32:46.770Z,100.00
2022-12-27T00:35:16.027Z,100.00
2022-12-27T00:37:47.423Z,100.00
2022-12-27T00:40:16.940Z,100.00
2022-12-27T00:42:46.158Z,100.00
2022-12-27T00:45:16.868Z,100.00
2022-12-27T00:47:45.926Z,100.00
2022-12-27T00:50:15.128Z,100.00
2022-12-27T00:52:44.493Z,100.00
2022-12-27T00:55:13.743Z,100.00
2022-12-27T00:57:43.382Z,100.00
2022-12-27T01:00:13.613Z,100.00
2022-12-27T01:02:44.338Z,100.00
2022-12-27T01:05:13.487Z,100.00
2022-12-27T01:07:42.685Z,100.00
2022-12-27T01:10:12.891Z,100.00
2022-12-27T01:12:42.410Z,100.00
2022-12-27T01:15:12.401Z,100.00
2022-12-27T01:17:41.530Z,100.00
2022-12-27T01:20:12.707Z,100.00
2022-12-27T01:22:41.808Z,100.00
2022-12-27T01:25:11.230Z,100.00
2022-12-27T01:27:41.503Z,100.00
2022-12-27T01:30:12.106Z,100.00
2022-12-27T01:32:41.223Z,100.00
2022-12-27T01:35:12.041Z,100.00
2022-12-27T01:37:41.126Z,100.00
2022-12-27T01:40:11.531Z,100.00
2022-12-27T01:42:52.872Z,100.00
2022-12-27T01:45:23.170Z,100.00
2022-12-27T01:47:58.901Z,100.00
2022-12-27T01:50:35.346Z,100.00
2022-12-27T01:53:14.184Z,100.00
2022-12-27T01:55:47.801Z,100.00
2022-12-27T01:58:21.559Z,100.00
2022-12-27T02:00:51.260Z,100.00
2022-12-27T02:03:24.193Z,100.00
2022-12-27T02:05:55.255Z,100.00
2022-12-27T02:08:38.592Z,100.00
2022-12-27T02:11:08.765Z,100.00
2022-12-27T02:13:43.120Z,100.00
2022-12-27T02:16:14.740Z,100.00
2022-12-27T02:18:44.426Z,100.00
2022-12-27T02:21:38.426Z,100.00
2022-12-27T02:24:53.149Z,100.00
2022-12-27T02:27:35.055Z,100.00
2022-12-27T02:30:07.428Z,100.00
2022-12-27T02:32:41.231Z,100.00
2022-12-27T02:35:16.564Z,100.00
2022-12-27T02:37:50.512Z,100.00
2022-12-27T02:40:40.404Z,100.00
2022-12-27T02:43:27.357Z,100.00
2022-12-27T02:46:22.365Z,100.00
2022-12-27T02:49:13.198Z,100.00
2022-12-27T02:52:14.475Z,100.00
2022-12-27T02:55:04.208Z,100.00
2022-12-27T02:57:48.888Z,100.00
2022-12-27T03:00:38.383Z,100.00
2022-12-27T03:03:25.375Z,100.00
2022-12-27T03:06:37.694Z,100.00
2022-12-27T03:09:38.189Z,100.00
2022-12-27T03:12:27.774Z,100.00
2022-12-27T03:15:19.058Z,100.00
2022-12-27T03:17:54.165Z,100.00
2022-12-27T03:20:42.490Z,100.00
2022-12-27T03:23:30.406Z,100.00
2022-12-27T03:26:03.295Z,100.00
2022-12-27T03:28:50.838Z,100.00
2022-12-27T03:31:43.638Z,100.00
2022-12-27T03:34:38.521Z,100.00
2022-12-27T03:37:29.703Z,100.00
2022-12-27T03:40:08.122Z,100.00
2022-12-27T03:42:59.347Z,100.00
2022-12-27T03:45:47.787Z,100.00
2022-12-27T03:48:21.732Z,100.00
2022-12-27T03:50:54.878Z,100.00
2022-12-27T03:53:32.410Z,100.00
2022-12-27T03:56:01.910Z,100.00
2022-12-27T03:58:31.174Z,100.00
2022-12-27T04:01:00.671Z,100.00
2022-12-27T04:03:30.341Z,100.00
2022-12-27T04:05:59.469Z,100.00
2022-12-27T04:08:47.627Z,100.00
2022-12-27T04:11:34.026Z,100.00
2022-12-27T04:14:20.427Z,100.00
2022-12-27T04:17:06.768Z,100.00
2022-12-27T04:19:53.024Z,100.00
2022-12-27T04:22:39.465Z,100.00
2022-12-27T04:25:27.899Z,100.00
2022-12-27T04:28:14.790Z,100.00
2022-12-27T04:31:01.467Z,100.00
2022-12-27T04:33:47.911Z,100.00
2022-12-27T04:36:17.188Z,100.00
2022-12-27T04:38:46.538Z,100.00
2022-12-27T04:41:34.510Z,100.00
2022-12-27T04:44:21.008Z,100.00
2022-12-27T04:47:07.384Z,100.00
2022-12-27T04:49:54.255Z,100.00
2022-12-27T04:52:43.248Z,100.00
2022-12-27T04:55:21.072Z,100.00
2022-12-27T04:57:52.930Z,100.00
2022-12-27T05:00:41.120Z,100.00
2022-12-27T05:03:13.208Z,100.00
2022-12-27T05:05:44.859Z,100.00
2022-12-27T05:08:32.738Z,100.00
2022-12-27T05:11:19.694Z,100.00
2022-12-27T05:14:02.684Z,100.00
2022-12-27T05:16:33.313Z,100.00
2022-12-27T05:19:02.684Z,100.00
2022-12-27T05:21:31.815Z,100.00
2022-12-27T05:24:18.385Z,100.00
2022-12-27T05:26:47.482Z,100.00
2022-12-27T05:29:18.324Z,100.00
2022-12-27T05:31:47.332Z,100.00
2022-12-27T05:34:16.407Z,100.00
2022-12-27T05:36:45.543Z,100.00
2022-12-27T05:39:14.728Z,100.00
2022-12-27T05:41:43.878Z,100.00
2022-12-27T05:44:13.011Z,100.00
2022-12-27T05:46:43.740Z,100.00
2022-12-27T05:49:13.000Z,100.00
2022-12-27T05:51:42.288Z,100.00
2022-12-27T05:54:11.572Z,100.00
2022-12-27T05:56:41.444Z,100.00
2022-12-27T05:59:10.796Z,100.00
2022-12-27T06:01:39.986Z,100.00
2022-12-27T06:04:11.447Z,100.00
2022-12-27T06:06:40.649Z,100.00
2022-12-27T06:09:09.930Z,100.00
2022-12-27T06:11:39.172Z,100.00
2022-12-27T06:14:08.288Z,100.00
2022-12-27T06:16:39.126Z,100.00
2022-12-27T06:19:09.732Z,100.00
2022-12-27T06:21:38.868Z,100.00
2022-12-27T06:24:08.672Z,100.00
2022-12-27T06:26:38.003Z,100.00
2022-12-27T06:29:07.362Z,100.00
2022-12-27T06:31:37.208Z,100.00
2022-12-27T06:34:07.149Z,100.00
2022-12-27T06:36:38.003Z,100.00
2022-12-27T06:39:07.107Z,100.00
2022-12-27T06:41:36.248Z,100.00
2022-12-27T06:44:05.506Z,100.00
2022-12-27T06:46:34.705Z,100.00
2022-12-27T06:49:04.649Z,100.00
2022-12-27T06:51:36.825Z,100.00
2022-12-27T06:54:06.381Z,100.00
2022-12-27T06:56:35.483Z,100.00
2022-12-27T06:59:04.765Z,100.00
2022-12-27T07:01:33.985Z,100.00
2022-12-27T07:04:03.485Z,100.00
2022-12-27T07:06:33.809Z,100.00
2022-12-27T07:09:04.987Z,100.00
2022-12-27T07:11:35.915Z,100.00
2022-12-27T07:14:05.823Z,100.00
2022-12-27T07:16:35.114Z,100.00
2022-12-27T07:19:05.019Z,100.00
2022-12-27T07:21:34.936Z,100.00
2022-12-27T07:24:06.150Z,100.00
2022-12-27T07:26:36.280Z,100.00
2022-12-27T07:29:05.883Z,100.00
2022-12-27T07:31:35.508Z,100.00
2022-12-27T07:34:05.551Z,100.00
2022-12-27T07:36:38.581Z,100.00
2022-12-27T07:39:10.393Z,100.00
2022-12-27T07:41:41.692Z,100.00
2022-12-27T07:44:13.009Z,100.00
2022-12-27T07:46:42.261Z,100.00
2022-12-27T07:49:17.549Z,100.00
2022-12-27T07:51:47.120Z,100.00
2022-12-27T07:54:17.855Z,100.00
2022-12-27T07:56:46.957Z,100.00
2022-12-27T07:59:22.598Z,100.00
2022-12-27T08:02:06.871Z,100.00
2022-12-27T08:04:39.548Z,100.00
2022-12-27T08:07:13.058Z,100.00
2022-12-27T08:09:45.720Z,100.00
2022-12-27T08:12:15.455Z,100.00
2022-12-27T08:14:44.953Z,100.00
2022-12-27T08:17:20.562Z,100.00
2022-12-27T08:19:52.197Z,100.00
2022-12-27T08:22:21.519Z,100.00
2022-12-27T08:24:52.454Z,100.00
2022-12-27T08:27:26.019Z,100.00
2022-12-27T08:29:55.283Z,100.00
2022-12-27T08:32:24.525Z,100.00
2022-12-27T08:34:54.083Z,100.00
2022-12-27T08:37:23.395Z,100.00
2022-12-27T08:39:57.795Z,100.00
2022-12-27T08:42:32.502Z,100.00
2022-12-27T08:45:01.850Z,100.00
2022-12-27T08:47:32.772Z,100.00
2022-12-27T08:50:02.211Z,100.00
2022-12-27T08:52:33.036Z,100.00
2022-12-27T08:55:04.401Z,100.00
2022-12-27T08:57:33.899Z,100.00
2022-12-27T09:00:03.254Z,100.00
2022-12-27T09:02:33.802Z,99.99
2022-12-27T09:05:03.148Z,98.82
2022-12-27T09:07:33.365Z,98.08
2022-12-27T09:10:04.619Z,96.43
2022-12-27T09:12:35.125Z,96.48
2022-12-27T09:15:04.211Z,97.12
2022-12-27T09:17:33.677Z,98.66
2022-12-27T09:20:03.788Z,98.69
2022-12-27T09:22:33.156Z,96.77
2022-12-27T09:25:03.863Z,95.61
2022-12-27T09:27:33.293Z,95.78
2022-12-27T09:30:02.632Z,94.35
2022-12-27T09:32:33.415Z,94.15
2022-12-27T09:35:02.684Z,92.05
2022-12-27T09:37:33.699Z,92.45
2022-12-27T09:40:04.618Z,92.20
2022-12-27T09:43:03.003Z,92.13
2022-12-27T09:45:39.697Z,93.08
2022-12-27T09:48:16.268Z,94.27
2022-12-27T09:50:50.106Z,93.78
2022-12-27T09:53:23.896Z,93.65
2022-12-27T09:55:58.215Z,94.37
2022-12-27T09:58:39.728Z,93.40
2022-12-27T10:01:22.736Z,93.52
2022-12-27T10:03:52.335Z,93.70
2022-12-27T10:06:48.294Z,92.75
2022-12-27T10:09:34.205Z,92.42
2022-12-27T10:12:15.466Z,91.52
2022-12-27T10:15:01.351Z,91.34
2022-12-27T10:17:52.641Z,93.11
2022-12-27T10:20:34.921Z,93.70
2022-12-27T10:23:07.342Z,93.25
2022-12-27T10:25:37.534Z,93.44
2022-12-27T10:28:17.968Z,93.42
2022-12-27T10:30:47.285Z,94.15
2022-12-27T10:33:22.080Z,94.74
2022-12-27T10:35:51.536Z,95.25
2022-12-27T10:38:21.217Z,95.81
2022-12-27T10:40:58.069Z,96.53
2022-12-27T10:43:35.032Z,98.49
2022-12-27T10:46:14.390Z,98.98
2022-12-27T10:49:20.026Z,98.78
2022-12-27T10:51:50.788Z,97.87
2022-12-27T10:54:24.278Z,97.03
2022-12-27T10:56:54.557Z,96.94
2022-12-27T10:59:27.086Z,97.43
2022-12-27T11:02:18.800Z,96.96
2022-12-27T11:04:59.860Z,97.42
2022-12-27T11:07:34.689Z,98.46
2022-12-27T11:10:10.286Z,98.79
2022-12-27T11:12:39.538Z,99.56
2022-12-27T11:15:20.024Z,100.00
2022-12-27T11:17:51.918Z,100.00
2022-12-27T11:20:24.319Z,100.00
2022-12-27T11:22:57.567Z,100.00
2022-12-27T11:25:28.778Z,100.00
2022-12-27T11:28:02.370Z,100.00
2022-12-27T11:30:35.765Z,100.00
2022-12-27T11:33:08.089Z,100.00
2022-12-27T11:35:48.256Z,100.00
2022-12-27T11:38:26.497Z,100.00
2022-12-27T11:41:01.920Z,100.00
2022-12-27T11:43:35.215Z,100.00
2022-12-27T11:46:15.749Z,100.00
2022-12-27T11:48:47.060Z,100.00
2022-12-27T11:51:40.025Z,100.00
2022-12-27T11:54:24.035Z,100.00
2022-12-27T11:56:59.706Z,100.00
2022-12-27T11:59:48.991Z,100.00
2022-12-27T12:02:30.329Z,100.00
2022-12-27T12:05:30.141Z,100.00
2022-12-27T12:08:12.593Z,100.00
2022-12-27T12:10:51.131Z,100.00
2022-12-27T12:13:56.609Z,100.00
2022-12-27T12:16:46.539Z,100.00
2022-12-27T12:19:43.665Z,100.00
2022-12-27T12:22:36.360Z,100.00
2022-12-27T12:25:46.869Z,100.00
2022-12-27T12:28:58.731Z,100.00
2022-12-27T12:32:10.077Z,100.00
2022-12-27T12:35:08.252Z,100.00
2022-12-27T12:38:01.534Z,100.00
2022-12-27T12:40:40.523Z,100.00
2022-12-27T12:43:29.594Z,100.00
2022-12-27T12:46:08.971Z,100.00
2022-12-27T12:49:05.013Z,100.00
2022-12-27T12:51:48.715Z,100.00
2022-12-27T12:54:37.216Z,100.00
2022-12-27T12:57:17.205Z,100.00
2022-12-27T13:00:09.241Z,100.00
2022-12-27T13:03:14.270Z,100.00
2022-12-27T13:05:49.506Z,100.00
2022-12-27T13:08:28.406Z,100.00
2022-12-27T13:11:15.123Z,100.00
2022-12-27T13:13:57.336Z,100.00
2022-12-27T13:16:32.743Z,100.00
2022-12-27T13:19:24.007Z,100.00
2022-12-27T13:22:07.569Z,100.00
2022-12-27T13:24:53.206Z,100.00
2022-12-27T13:27:30.740Z,100.00
2022-12-27T13:30:07.692Z,100.00
2022-12-27T13:32:50.098Z,100.00
2022-12-27T13:35:33.870Z,100.00
2022-12-27T13:38:21.194Z,100.00
2022-12-27T13:41:13.040Z,100.00
2022-12-27T13:43:56.333Z,100.00
2022-12-27T13:47:14.329Z,100.00
2022-12-27T13:50:01.036Z,100.00
2022-12-27T13:52:53.291Z,100.00
2022-12-27T13:55:46.496Z,100.00
2022-12-27T13:59:00.326Z,100.00
2022-12-27T14:01:44.527Z,100.00
2022-12-27T14:04:34.989Z,100.00
2022-12-27T14:07:28.352Z,100.00
2022-12-27T14:10:17.270Z,100.00
2022-12-27T14:13:01.245Z,100.00
2022-12-27T14:16:11.128Z,100.00
2022-12-27T14:19:06.390Z,100.00
2022-12-27T14:22:09.752Z,100.00
2022-12-27T14:25:44.791Z,100.00
2022-12-27T14:29:07.311Z,100.00
2022-12-27T14:31:59.048Z,100.00
2022-12-27T14:35:00.674Z,100.00
2022-12-27T14:38:02.387Z,100.00
2022-12-27T14:41:29.977Z,100.00
2022-12-27T14:44:36.967Z,100.00
2022-12-27T14:47:53.627Z,100.00
2022-12-27T14:51:14.916Z,100.00
2022-12-27T14:54:21.418Z,100.00
2022-12-27T14:57:02.255Z,100.00
2022-12-27T14:59:43.251Z,100.00
2022-12-27T15:02:35.280Z,100.00
2022-12-27T15:05:30.713Z,100.00
2022-12-27T15:08:24.804Z,100.00
2022-12-27T15:11:16.324Z,100.00
2022-12-27T15:14:06.611Z,100.00
2022-12-27T15:16:48.386Z,100.00
2022-12-27T15:19:44.197Z,100.00
2022-12-27T15:22:28.409Z,100.00
2022-12-27T15:25:06.310Z,100.00
2022-12-27T15:27:46.460Z,100.00
2022-12-27T15:30:25.590Z,100.00
2022-12-27T15:33:06.888Z,100.00
2022-12-27T15:35:53.960Z,100.00
2022-12-27T15:38:44.477Z,100.00
2022-12-27T15:41:31.601Z,100.00
2022-12-27T15:44:40.369Z,100.00
2022-12-27T15:47:47.082Z,100.00
2022-12-27T15:50:36.905Z,100.00
2022-12-27T15:53:26.074Z,100.00
2022-12-27T15:56:21.822Z,100.00
2022-12-27T15:59:23.889Z,100.00
2022-12-27T16:02:26.558Z,100.00
2022-12-27T16:04:58.692Z,100.00
2022-12-27T16:07:46.916Z,100.00
2022-12-27T16:10:52.040Z,100.00
2022-12-27T16:13:42.253Z,100.00
2022-12-27T16:16:33.695Z,100.00
2022-12-27T16:19:40.514Z,100.00
2022-12-27T16:22:26.572Z,100.00
2022-12-27T16:24:56.611Z,100.00
2022-12-27T16:27:32.981Z,100.00
2022-12-27T16:30:04.666Z,100.00
2022-12-27T16:32:35.185Z,100.00
2022-12-27T16:35:17.569Z,100.00
2022-12-27T16:37:54.593Z,100.00
2022-12-27T16:40:41.467Z,100.00
2022-12-27T16:43:37.740Z,100.00
2022-12-27T16:46:28.414Z,100.00
2022-12-27T16:49:24.134Z,100.00
2022-12-27T16:52:08.799Z,100.00
2022-12-27T16:54:53.987Z,100.00
2022-12-27T16:57:32.573Z,100.00
2022-12-27T17:00:04.887Z,100.00
2022-12-27T17:02:46.676Z,100.00
2022-12-27T17:05:37.497Z,100.00
2022-12-27T17:08:20.484Z,100.00
2022-12-27T17:11:00.456Z,100.00
2022-12-27T17:13:46.716Z,100.00
2022-12-27T17:16:22.790Z,100.00
2022-12-27T17:18:56.443Z,100.00
2022-12-27T17:21:31.915Z,100.00
2022-12-27T17:24:08.202Z,100.00
2022-12-27T17:26:59.776Z,100.00
2022-12-27T17:30:05.317Z,100.00
2022-12-27T17:32:57.953Z,100.00
2022-12-27T17:35:35.046Z,100.00
2022-12-27T17:38:19.274Z,100.00
2022-12-27T17:41:02.047Z,100.00
2022-12-27T17:43:58.805Z,100.00
2022-12-27T17:46:40.323Z,100.00
2022-12-27T17:49:11.903Z,100.00
2022-12-27T17:52:03.896Z,100.00
2022-12-27T17:54:51.735Z,100.00
2022-12-27T17:57:41.746Z,100.00
2022-12-27T18:00:24.838Z,100.00
2022-12-27T18:02:56.804Z,100.00
2022-12-27T18:05:31.802Z,100.00
2022-12-27T18:08:04.112Z,100.00
2022-12-27T18:10:36.755Z,100.00
2022-12-27T18:13:19.420Z,100.00
2022-12-27T18:15:53.656Z,100.00
2022-12-27T18:18:28.405Z,100.00
2022-12-27T18:21:01.626Z,100.00
2022-12-27T18:23:30.513Z,100.00
2022-12-27T18:26:09.215Z,100.00
2022-12-27T18:28:44.568Z,100.00
2022-12-27T18:31:19.656Z,100.00
2022-12-27T18:33:52.480Z,100.00
2022-12-27T18:36:32.280Z,100.00
2022-12-27T18:39:03.932Z,100.00
2022-12-27T18:41:39.132Z,100.00
2022-12-27T18:44:28.500Z,100.00
2022-12-27T18:47:03.119Z,100.00
2022-12-27T18:49:35.114Z,100.00
2022-12-27T18:52:14.595Z,100.00
2022-12-27T18:54:44.713Z,100.00
2022-12-27T18:57:33.166Z,100.00
2022-12-27T19:00:15.948Z,100.00
2022-12-27T19:02:46.691Z,100.00
2022-12-27T19:05:30.836Z,100.00
2022-12-27T19:08:13.820Z,100.00
2022-12-27T19:10:50.123Z,100.00
2022-12-27T19:13:24.744Z,100.00
2022-12-27T19:15:57.019Z,100.00
2022-12-27T19:18:40.149Z,100.00
2022-12-27T19:21:09.456Z,100.00
2022-12-27T19:23:43.420Z,100.00
2022-12-27T19:26:31.101Z,100.00
2022-12-27T19:29:03.906Z,100.00
2022-12-27T19:31:36.527Z,100.00
2022-12-27T19:34:10.663Z,100.00
2022-12-27T19:36:42.118Z,100.00
2022-12-27T19:39:23.028Z,100.00
2022-12-27T19:41:53.295Z,100.00
2022-12-27T19:44:30.861Z,100.00
2022-12-27T19:47:10.686Z,100.00
2022-12-27T19:49:42.162Z,100.00
2022-12-27T19:52:17.156Z,100.00
2022-12-27T19:54:49.495Z,100.00
2022-12-27T19:57:18.919Z,100.00
2022-12-27T20:00:12.505Z,100.00
2022-12-27T20:02:44.124Z,100.00
2022-12-27T20:05:14.138Z,100.00
2022-12-27T20:07:43.697Z,100.00
2022-12-27T20:10:19.428Z,100.00
2022-12-27T20:12:48.658Z,100.00
2022-12-27T20:15:19.908Z,100.00
2022-12-27T20:17:55.522Z,100.00
2022-12-27T20:20:24.973Z,100.00
2022-12-27T20:22:54.323Z,100.00
2022-12-27T20:25:23.959Z,100.00
2022-12-27T20:27:53.344Z,100.00
2022-12-27T20:30:27.825Z,100.00
2022-12-27T20:32:59.043Z,100.00
2022-12-27T20:35:28.737Z,100.00
2022-12-27T20:37:58.349Z,100.00
2022-12-27T20:40:27.987Z,100.00
2022-12-27T20:43:01.011Z,100.00
2022-12-27T20:45:30.393Z,100.00
2022-12-27T20:48:01.194Z,100.00
2022-12-27T20:50:31.050Z,100.00
2022-12-27T20:53:00.389Z,100.00
2022-12-27T20:55:33.644Z,100.00
2022-12-27T20:58:08.096Z,100.00
2022-12-27T21:00:41.502Z,100.00
2022-12-27T21:03:15.060Z,100.00
2022-12-27T21:05:44.795Z,100.00
2022-12-27T21:08:14.138Z,100.00
2022-12-27T21:10:43.661Z,100.00
2022-12-27T21:13:15.667Z,100.00
2022-12-27T21:15:47.574Z,100.00
2022-12-27T21:18:18.217Z,100.00
2022-12-27T21:20:50.207Z,100.00
2022-12-27T21:23:19.400Z,100.00
2022-12-27T21:25:48.552Z,100.00
2022-12-27T21:28:17.932Z,100.00
2022-12-27T21:30:57.140Z,100.00
2022-12-27T21:33:28.953Z,100.00
2022-12-27T21:35:59.671Z,100.00
2022-12-27T21:38:29.860Z,100.00
2022-12-27T21:41:01.331Z,100.00
2022-12-27T21:43:31.279Z,100.00
2022-12-27T21:46:00.818Z,100.00
2022-12-27T21:48:31.771Z,100.00
2022-12-27T21:51:06.139Z,100.00
2022-12-27T21:53:35.785Z,100.00
2022-12-27T21:56:06.240Z,100.00
2022-12-27T21:58:36.752Z,100.00
2022-12-27T22:01:08.809Z,100.00
2022-12-27T22:03:42.600Z,100.00
2022-12-27T22:06:13.566Z,100.00
2022-12-27T22:08:43.927Z,100.00
2022-12-27T22:11:13.549Z,100.00
2022-12-27T22:13:43.462Z,100.00
2022-12-27T22:16:15.709Z,100.00
2022-12-27T22:18:46.623Z,100.00
2022-12-27T22:21:21.389Z,100.00
2022-12-27T22:23:52.632Z,100.00
2022-12-27T22:26:24.448Z,100.00
2022-12-27T22:28:53.778Z,100.00
2022-12-27T22:31:25.923Z,100.00
2022-12-27T22:33:56.673Z,100.00
2022-12-27T22:36:27.834Z,100.00
2022-12-27T22:38:57.893Z,100.00
2022-12-27T22:41:29.165Z,100.00
2022-12-27T22:44:00.053Z,100.00
2022-12-27T22:46:51.151Z,100.00
2022-12-27T22:49:21.691Z,100.00
2022-12-27T22:51:50.843Z,100.00
2022-12-27T22:54:20.322Z,100.00
2022-12-27T22:57:09.546Z,100.00
2022-12-27T22:59:38.843Z,100.00
2022-12-27T23:02:08.157Z,100.00
2022-12-27T23:04:38.914Z,100.00
2022-12-27T23:07:08.347Z,100.00
2022-12-27T23:09:42.797Z,100.00
2022-12-27T23:12:13.155Z,100.00
2022-12-27T23:14:42.525Z,100.00
2022-12-27T23:17:11.743Z,100.00
2022-12-27T23:19:42.541Z,100.00
2022-12-27T23:22:11.725Z,100.00
2022-12-27T23:24:41.059Z,100.00
2022-12-27T23:27:10.173Z,100.00
2022-12-27T23:29:39.411Z,100.00
2022-12-27T23:32:08.665Z,100.00
2022-12-27T23:34:37.863Z,100.00
2022-12-27T23:37:08.417Z,100.00
2022-12-27T23:39:37.612Z,100.00
2022-12-27T23:42:07.099Z,100.00
2022-12-27T23:44:36.555Z,100.00
2022-12-27T23:47:06.916Z,100.00
2022-12-27T23:49:36.451Z,100.00
2022-12-27T23:52:05.881Z,100.00
2022-12-27T23:54:36.856Z,100.00
2022-12-27T23:57:19.878Z,100.00
2022-12-27T23:59:51.925Z,100.00
